createdAt,value
2018-12-14T00:02:26.453Z,3.37
2018-12-14T00:04:56.358Z,3.38
2018-12-14T00:07:27.036Z,3.41
2018-12-14T00:09:58.865Z,3.40
2018-12-14T00:12:29.578Z,3.40
2018-12-14T00:14:59.667Z,3.42
2018-12-14T00:17:29.314Z,3.39
2018-12-14T00:19:59.656Z,3.36
2018-12-14T00:22:29.838Z,3.35
2018-12-14T00:25:02.615Z,3.33
2018-12-14T00:27:35.809Z,3.34
2018-12-14T00:30:07.353Z,3.33
2018-12-14T00:32:37.031Z,3.35
2018-12-14T00:35:07.761Z,3.36
2018-12-14T00:37:37.282Z,3.35
2018-12-14T00:40:07.455Z,3.38
2018-12-14T00:42:37.557Z,3.37
2018-12-14T00:45:07.604Z,3.36
2018-12-14T00:47:37.506Z,3.36
2018-12-14T00:50:08.971Z,3.35
2018-12-14T00:52:40.575Z,3.32
2018-12-14T00:55:10.541Z,3.31
2018-12-14T00:57:41.515Z,3.33
2018-12-14T01:00:12.259Z,3.35
2018-12-14T01:02:41.893Z,3.34
2018-12-14T01:05:13.514Z,3.32
2018-12-14T01:07:43.276Z,3.33
2018-12-14T01:10:13.677Z,3.32
2018-12-14T01:12:43.266Z,3.29
2018-12-14T01:15:13.902Z,2.56
2018-12-14T01:17:43.996Z,3.23
2018-12-14T01:20:16.403Z,3.25
2018-12-14T01:22:47.846Z,3.28
2018-12-14T01:25:17.966Z,3.25
2018-12-14T01:27:50.213Z,3.27
2018-12-14T01:30:20.621Z,3.26
2018-12-14T01:32:50.644Z,3.31
2018-12-14T01:35:20.890Z,3.32
2018-12-14T01:37:51.242Z,3.34
2018-12-14T01:40:20.921Z,3.34
2018-12-14T01:42:51.420Z,3.32
2018-12-14T01:45:21.075Z,3.28
2018-12-14T01:47:50.922Z,3.27
2018-12-14T01:50:21.087Z,3.25
2018-12-14T01:52:50.906Z,3.29
2018-12-14T01:55:21.290Z,3.26
2018-12-14T01:57:51.678Z,3.23
2018-12-14T02:00:22.389Z,3.26
2018-12-14T02:02:52.299Z,3.24
2018-12-14T02:05:22.152Z,3.24
2018-12-14T02:07:51.641Z,3.32
2018-12-14T02:10:21.145Z,3.37
2018-12-14T02:12:51.591Z,3.34
2018-12-14T02:15:21.690Z,3.33
2018-12-14T02:17:51.313Z,3.34
2018-12-14T02:20:21.192Z,3.29
2018-12-14T02:22:50.971Z,3.27
2018-12-14T02:25:22.802Z,3.04
2018-12-14T02:27:52.955Z,3.32
2018-12-14T02:30:33.259Z,3.35
2018-12-14T02:33:04.390Z,3.32
2018-12-14T02:35:36.793Z,3.34
2018-12-14T02:38:07.892Z,3.41
2018-12-14T02:40:38.344Z,3.43
2018-12-14T02:43:07.849Z,3.45
2018-12-14T02:45:37.547Z,3.49
2018-12-14T02:48:08.656Z,3.51
2018-12-14T02:50:38.595Z,3.55
2018-12-14T02:53:08.709Z,3.56
2018-12-14T02:55:39.077Z,3.49
2018-12-14T02:58:08.881Z,3.48
2018-12-14T03:00:38.725Z,3.44
2018-12-14T03:03:09.094Z,3.42
2018-12-14T03:05:40.975Z,3.38
2018-12-14T03:08:11.555Z,3.34
2018-12-14T03:10:42.333Z,3.32
2018-12-14T03:13:11.991Z,3.25
2018-12-14T03:15:41.431Z,3.24
2018-12-14T03:18:11.772Z,3.24
2018-12-14T03:20:41.881Z,3.23
2018-12-14T03:23:12.070Z,3.20
2018-12-14T03:25:42.899Z,3.16
2018-12-14T03:28:20.126Z,3.19
2018-12-14T03:30:50.062Z,3.18
2018-12-14T03:33:19.925Z,3.19
2018-12-14T03:35:49.712Z,3.19
2018-12-14T03:38:20.528Z,3.17
2018-12-14T03:40:51.647Z,3.18
2018-12-14T03:43:23.419Z,3.04
2018-12-14T03:45:54.530Z,3.07
2018-12-14T03:48:24.948Z,3.14
2018-12-14T03:50:55.467Z,3.02
2018-12-14T03:53:26.108Z,2.46
2018-12-14T03:55:55.925Z,3.16
2018-12-14T03:58:25.742Z,3.13
2018-12-14T04:00:56.145Z,3.17
2018-12-14T04:03:26.287Z,3.16
2018-12-14T04:05:57.635Z,3.13
2018-12-14T04:08:27.703Z,3.12
2018-12-14T04:10:58.955Z,3.13
2018-12-14T04:13:37.838Z,2.64
2018-12-14T04:16:13.684Z,3.15
2018-12-14T04:18:44.753Z,3.16
2018-12-14T04:21:15.352Z,3.20
2018-12-14T04:23:45.537Z,3.20
2018-12-14T04:26:16.086Z,3.20
2018-12-14T04:28:46.056Z,3.22
2018-12-14T04:31:20.753Z,3.27
2018-12-14T04:33:52.962Z,3.23
2018-12-14T04:36:25.636Z,3.25
2018-12-14T04:38:55.999Z,3.23
2018-12-14T04:41:27.388Z,2.52
2018-12-14T04:43:57.050Z,3.24
2018-12-14T04:46:28.469Z,3.20
2018-12-14T04:49:01.747Z,3.21
2018-12-14T04:51:34.369Z,3.26
2018-12-14T04:54:05.706Z,3.26
2018-12-14T04:56:35.899Z,3.21
2018-12-14T04:59:09.632Z,2.53
2018-12-14T05:01:39.777Z,2.64
2018-12-14T05:04:10.097Z,3.19
2018-12-14T05:06:39.758Z,3.12
2018-12-14T05:09:10.955Z,3.12
2018-12-14T05:11:41.586Z,3.13
2018-12-14T05:14:13.225Z,3.19
2018-12-14T05:16:45.354Z,3.21
2018-12-14T05:19:16.904Z,3.17
2018-12-14T05:21:48.655Z,3.14
2018-12-14T05:24:19.039Z,3.16
2018-12-14T05:26:49.334Z,3.12
2018-12-14T05:29:19.542Z,3.09
2018-12-14T05:31:50.778Z,3.07
2018-12-14T05:34:21.261Z,2.97
2018-12-14T05:36:52.542Z,2.86
2018-12-14T05:39:22.481Z,2.75
2018-12-14T05:41:56.471Z,2.65
2018-12-14T05:44:26.464Z,2.58
2018-12-14T05:47:00.219Z,2.44
2018-12-14T05:49:30.181Z,2.34
2018-12-14T05:52:01.805Z,2.24
2018-12-14T05:54:31.849Z,2.18
2018-12-14T05:57:01.381Z,2.10
2018-12-14T05:59:32.083Z,2.02
2018-12-14T06:02:04.568Z,1.95
2018-12-14T06:04:33.924Z,1.90
2018-12-14T06:07:05.287Z,1.85
2018-12-14T06:09:34.996Z,1.80
2018-12-14T06:12:05.216Z,1.25
2018-12-14T06:14:35.966Z,1.67
2018-12-14T06:17:19.631Z,0.87
2018-12-14T06:19:49.092Z,0.92
2018-12-14T06:22:20.134Z,1.49
2018-12-14T06:24:49.609Z,1.42
2018-12-14T06:27:20.485Z,1.38
2018-12-14T06:29:51.361Z,1.31
2018-12-14T06:32:22.533Z,1.28
2018-12-14T06:34:52.763Z,1.21
2018-12-14T06:37:23.580Z,1.18
2018-12-14T06:39:55.581Z,1.12
2018-12-14T06:42:25.524Z,1.10
2018-12-14T06:44:57.437Z,1.06
2018-12-14T06:47:30.366Z,1.02
2018-12-14T06:50:00.814Z,0.99
2018-12-14T06:52:32.938Z,0.91
2018-12-14T06:55:02.908Z,0.90
2018-12-14T06:57:33.409Z,-0.41
2018-12-14T07:00:03.572Z,0.86
2018-12-14T07:02:33.199Z,0.87
2018-12-14T07:05:03.176Z,0.88
2018-12-14T07:07:32.527Z,0.87
2018-12-14T07:10:02.151Z,0.85
2018-12-14T07:12:32.229Z,0.83
2018-12-14T07:15:05.057Z,0.85
2018-12-14T07:17:35.219Z,0.83
2018-12-14T07:20:07.543Z,0.84
2018-12-14T07:22:37.357Z,0.83
2018-12-14T07:25:09.672Z,0.83
2018-12-14T07:27:39.669Z,0.83
2018-12-14T07:30:10.586Z,0.80
2018-12-14T07:32:40.281Z,0.81
2018-12-14T07:35:10.913Z,0.79
2018-12-14T07:37:40.484Z,0.80
2018-12-14T07:40:12.495Z,0.81
2018-12-14T07:42:43.103Z,0.83
2018-12-14T07:45:13.618Z,0.85
2018-12-14T07:47:43.340Z,0.84
2018-12-14T07:50:14.037Z,0.81
2018-12-14T07:52:43.945Z,0.83
2018-12-14T07:55:13.639Z,0.83
2018-12-14T07:57:43.973Z,0.86
2018-12-14T08:00:13.682Z,0.89
2018-12-14T08:02:45.075Z,0.88
2018-12-14T08:05:15.256Z,0.88
2018-12-14T08:07:44.818Z,0.89
2018-12-14T08:10:29.788Z,0.96
2018-12-14T08:13:08.648Z,0.98
2018-12-14T08:15:41.327Z,1.09
2018-12-14T08:18:11.664Z,1.25
2018-12-14T08:20:41.967Z,1.37
2018-12-14T08:23:12.221Z,1.53
2018-12-14T08:25:42.939Z,1.62
2018-12-14T08:28:13.147Z,1.68
2018-12-14T08:30:43.825Z,1.81
2018-12-14T08:33:14.909Z,1.91
2018-12-14T08:35:44.730Z,2.04
2018-12-14T08:38:14.557Z,2.10
2018-12-14T08:40:45.423Z,2.18
2018-12-14T08:43:17.307Z,2.28
2018-12-14T08:45:47.495Z,2.39
2018-12-14T08:48:17.494Z,2.46
2018-12-14T08:50:48.547Z,2.53
2018-12-14T08:53:19.562Z,2.60
2018-12-14T08:55:49.314Z,2.66
2018-12-14T08:58:19.280Z,2.71
2018-12-14T09:00:49.700Z,2.78
2018-12-14T09:03:19.345Z,2.80
2018-12-14T09:05:53.082Z,2.84
2018-12-14T09:08:25.970Z,2.92
2018-12-14T09:10:55.576Z,2.37
2018-12-14T09:13:25.344Z,3.01
2018-12-14T09:15:55.017Z,3.02
2018-12-14T09:18:25.564Z,3.06
2018-12-14T09:21:14.108Z,3.04
2018-12-14T09:23:45.315Z,3.10
2018-12-14T09:26:15.723Z,3.12
2018-12-14T09:28:47.266Z,3.15
2018-12-14T09:31:18.084Z,3.19
2018-12-14T09:33:48.529Z,3.28
2018-12-14T09:36:19.662Z,3.31
2018-12-14T09:38:51.521Z,3.36
2018-12-14T09:41:27.113Z,3.37
2018-12-14T09:43:58.358Z,2.77
2018-12-14T09:46:28.822Z,3.48
2018-12-14T09:48:58.681Z,3.53
2018-12-14T09:51:28.271Z,3.60
2018-12-14T09:54:00.862Z,3.64
2018-12-14T09:56:33.820Z,2.99
2018-12-14T09:59:06.002Z,3.67
2018-12-14T10:01:35.967Z,3.69
2018-12-14T10:04:10.192Z,2.88
2018-12-14T10:06:43.087Z,3.76
2018-12-14T10:09:14.411Z,3.81
2018-12-14T10:11:55.119Z,3.88
2018-12-14T10:14:25.670Z,3.88
2018-12-14T10:16:56.114Z,3.94
2018-12-14T10:19:26.843Z,4.01
2018-12-14T10:21:56.883Z,3.95
2018-12-14T10:24:28.435Z,3.88
2018-12-14T10:26:58.628Z,3.95
2018-12-14T10:29:29.593Z,3.98
2018-12-14T10:31:59.684Z,4.01
2018-12-14T10:34:30.926Z,3.98
2018-12-14T10:37:05.835Z,3.13
2018-12-14T10:39:36.274Z,4.05
2018-12-14T10:42:08.707Z,4.04
2018-12-14T10:44:38.849Z,4.11
2018-12-14T10:47:08.836Z,4.19
2018-12-14T10:49:38.352Z,4.25
2018-12-14T10:52:08.320Z,4.33
2018-12-14T10:54:39.217Z,4.36
2018-12-14T10:57:08.570Z,4.39
2018-12-14T10:59:39.390Z,4.43
2018-12-14T11:02:09.969Z,3.63
2018-12-14T11:04:40.008Z,4.42
2018-12-14T11:07:11.289Z,4.49
2018-12-14T11:09:42.142Z,4.47
2018-12-14T11:12:11.555Z,4.07
2018-12-14T11:14:40.928Z,4.55
2018-12-14T11:17:10.491Z,4.56
2018-12-14T11:19:42.144Z,4.61
2018-12-14T11:22:11.616Z,4.71
2018-12-14T11:24:42.564Z,4.73
2018-12-14T11:27:11.992Z,4.78
2018-12-14T11:29:43.128Z,4.81
2018-12-14T11:32:12.864Z,4.85
2018-12-14T11:34:43.153Z,4.83
2018-12-14T11:37:14.229Z,4.88
2018-12-14T11:39:44.324Z,4.86
2018-12-14T11:42:13.833Z,4.93
2018-12-14T11:44:43.538Z,4.99
2018-12-14T11:47:18.184Z,4.96
2018-12-14T11:49:45.651Z,5.00
2018-12-14T11:52:16.973Z,4.99
2018-12-14T11:54:48.325Z,4.95
2018-12-14T11:57:18.848Z,4.89
2018-12-14T11:59:49.246Z,3.66
2018-12-14T12:02:20.075Z,4.94
2018-12-14T12:04:49.757Z,4.99
2018-12-14T12:07:19.981Z,4.97
2018-12-14T12:09:49.917Z,4.89
2018-12-14T12:12:21.011Z,4.97
2018-12-14T12:14:51.464Z,4.96
2018-12-14T12:17:22.762Z,4.90
2018-12-14T12:19:52.657Z,4.29
2018-12-14T12:22:22.247Z,5.00
2018-12-14T12:24:52.628Z,4.95
2018-12-14T12:27:22.761Z,4.87
2018-12-14T12:29:52.469Z,4.76
2018-12-14T12:32:22.245Z,4.71
2018-12-14T12:34:54.994Z,4.71
2018-12-14T12:37:26.453Z,4.76
2018-12-14T12:39:59.147Z,4.74
2018-12-14T12:42:29.978Z,4.76
2018-12-14T12:44:59.452Z,4.74
2018-12-14T12:47:30.748Z,4.74
2018-12-14T12:50:02.140Z,4.65
2018-12-14T12:52:34.064Z,4.71
2018-12-14T12:55:03.721Z,4.75
2018-12-14T12:57:35.118Z,4.72
2018-12-14T13:00:09.502Z,4.64
2018-12-14T13:02:42.743Z,4.55
2018-12-14T13:05:18.120Z,4.47
2018-12-14T13:07:52.048Z,4.45
2018-12-14T13:10:25.935Z,4.48
2018-12-14T13:12:57.048Z,4.49
2018-12-14T13:15:26.494Z,4.54
2018-12-14T13:17:57.152Z,4.45
2018-12-14T13:20:27.098Z,4.43
2018-12-14T13:23:58.812Z,4.43
2018-12-14T13:26:32.414Z,4.41
2018-12-14T13:29:02.371Z,4.40
2018-12-14T13:31:32.151Z,4.33
2018-12-14T13:34:01.736Z,4.29
2018-12-14T13:36:32.548Z,4.31
2018-12-14T13:39:02.499Z,4.28
2018-12-14T13:41:35.420Z,4.27
2018-12-14T13:44:06.294Z,4.24
2018-12-14T13:46:36.108Z,4.17
2018-12-14T13:49:06.311Z,4.18
2018-12-14T13:51:36.604Z,4.17
2018-12-14T13:54:21.708Z,4.15
2018-12-14T13:56:51.631Z,4.13
2018-12-14T13:59:22.792Z,4.16
2018-12-14T14:01:53.004Z,4.11
2018-12-14T14:04:23.431Z,4.03
2018-12-14T14:06:53.417Z,4.00
2018-12-14T14:09:25.252Z,3.99
2018-12-14T14:11:57.124Z,3.93
2018-12-14T14:14:27.527Z,3.93
2018-12-14T14:16:58.319Z,3.94
2018-12-14T14:19:32.288Z,3.95
2018-12-14T14:22:03.124Z,3.98
2018-12-14T14:24:34.328Z,3.98
2018-12-14T14:27:06.160Z,3.95
2018-12-14T14:29:37.279Z,3.91
2018-12-14T14:32:11.633Z,3.88
2018-12-14T14:34:47.943Z,3.89
2018-12-14T14:37:20.358Z,3.88
2018-12-14T14:39:54.539Z,3.72
2018-12-14T14:42:32.160Z,3.80
2018-12-14T14:45:06.739Z,3.81
2018-12-14T14:47:39.426Z,3.82
2018-12-14T14:50:14.295Z,3.75
2018-12-14T14:52:45.722Z,3.76
2018-12-14T14:55:19.117Z,3.64
2018-12-14T14:57:56.392Z,3.74
2018-12-14T15:00:31.643Z,3.77
2018-12-14T15:03:19.080Z,3.74
2018-12-14T15:05:49.965Z,3.73
2018-12-14T15:08:23.492Z,3.75
2018-12-14T15:10:55.928Z,3.68
2018-12-14T15:13:31.671Z,3.71
2018-12-14T15:16:05.847Z,3.63
2018-12-14T15:18:35.943Z,3.64
2018-12-14T15:21:08.182Z,3.61
2018-12-14T15:23:38.302Z,3.63
2018-12-14T15:26:10.114Z,3.63
2018-12-14T15:28:40.083Z,3.64
2018-12-14T15:31:12.044Z,3.67
2018-12-14T15:33:42.749Z,3.69
2018-12-14T15:36:14.148Z,3.70
2018-12-14T15:38:45.197Z,3.69
2018-12-14T15:41:15.923Z,3.02
2018-12-14T15:43:46.308Z,3.72
2018-12-14T15:46:17.892Z,3.67
2018-12-14T15:48:48.004Z,3.67
2018-12-14T15:51:20.805Z,3.72
2018-12-14T15:53:53.030Z,3.74
2018-12-14T15:56:25.396Z,3.65
2018-12-14T15:58:56.339Z,3.59
2018-12-14T16:01:30.248Z,3.60
2018-12-14T16:04:00.548Z,3.56
2018-12-14T16:06:33.083Z,3.55
2018-12-14T16:09:07.796Z,3.53
2018-12-14T16:11:47.078Z,3.53
2018-12-14T16:14:24.364Z,3.55
2018-12-14T16:16:55.213Z,3.51
2018-12-14T16:19:26.284Z,3.55
2018-12-14T16:22:00.225Z,3.53
2018-12-14T16:24:33.197Z,3.58
2018-12-14T16:27:10.019Z,3.62
2018-12-14T16:29:42.395Z,3.59
2018-12-14T16:32:17.881Z,3.59
2018-12-14T16:34:51.822Z,3.62
2018-12-14T16:37:24.608Z,3.61
2018-12-14T16:39:55.571Z,3.66
2018-12-14T16:42:28.314Z,3.67
2018-12-14T16:45:03.300Z,3.64
2018-12-14T16:47:36.663Z,3.65
2018-12-14T16:50:08.710Z,2.98
2018-12-14T16:52:42.163Z,3.60
2018-12-14T16:55:13.646Z,3.62
2018-12-14T16:57:49.735Z,3.57
2018-12-14T17:00:29.767Z,3.53
2018-12-14T17:03:02.887Z,3.52
2018-12-14T17:05:36.609Z,3.59
2018-12-14T17:08:12.027Z,3.57
2018-12-14T17:10:47.471Z,3.60
2018-12-14T17:13:21.208Z,3.64
2018-12-14T17:15:59.482Z,3.66
2018-12-14T17:18:35.346Z,3.69
2018-12-14T17:21:11.466Z,3.72
2018-12-14T17:23:43.034Z,3.57
2018-12-14T17:26:18.285Z,3.57
2018-12-14T17:28:52.089Z,3.61
2018-12-14T17:31:23.182Z,3.58
2018-12-14T17:33:56.891Z,3.51
2018-12-14T17:36:30.255Z,3.52
2018-12-14T17:39:02.026Z,3.55
2018-12-14T17:41:33.996Z,3.51
2018-12-14T17:44:08.718Z,3.53
2018-12-14T17:46:46.200Z,3.49
2018-12-14T17:49:23.443Z,3.52
2018-12-14T17:51:59.166Z,3.54
2018-12-14T17:54:31.323Z,3.53
2018-12-14T17:57:09.262Z,3.53
2018-12-14T17:59:41.388Z,3.53
2018-12-14T18:02:15.206Z,3.56
2018-12-14T18:04:46.849Z,3.58
2018-12-14T18:07:17.004Z,3.60
2018-12-14T18:09:47.383Z,3.58
2018-12-14T18:12:17.645Z,3.59
2018-12-14T18:14:51.056Z,3.57
2018-12-14T18:17:25.539Z,3.56
2018-12-14T18:19:56.342Z,3.55
2018-12-14T18:22:28.637Z,3.52
2018-12-14T18:24:58.590Z,3.51
2018-12-14T18:27:29.969Z,3.49
2018-12-14T18:30:00.475Z,3.45
2018-12-14T18:32:32.576Z,3.44
2018-12-14T18:35:05.663Z,3.44
2018-12-14T18:37:36.607Z,3.40
2018-12-14T18:40:10.818Z,3.36
2018-12-14T18:42:41.207Z,3.42
2018-12-14T18:45:14.298Z,3.49
2018-12-14T18:47:46.123Z,3.44
2018-12-14T18:50:17.835Z,3.48
2018-12-14T18:52:48.928Z,3.45
2018-12-14T18:55:19.505Z,3.45
2018-12-14T18:57:53.558Z,3.39
2018-12-14T19:00:23.252Z,3.41
2018-12-14T19:02:55.214Z,3.44
2018-12-14T19:05:26.201Z,3.45
2018-12-14T19:07:58.409Z,3.46
2018-12-14T19:10:29.836Z,3.51
2018-12-14T19:13:00.520Z,3.53
2018-12-14T19:15:32.584Z,3.53
2018-12-14T19:18:05.930Z,3.54
2018-12-14T19:20:40.426Z,3.57
2018-12-14T19:23:19.610Z,3.55
2018-12-14T19:25:50.920Z,3.54
2018-12-14T19:28:29.901Z,3.57
2018-12-14T19:31:01.165Z,3.57
2018-12-14T19:33:32.844Z,3.58
2018-12-14T19:36:04.298Z,3.59
2018-12-14T19:38:35.269Z,3.57
2018-12-14T19:41:08.611Z,3.59
2018-12-14T19:43:40.218Z,3.64
2018-12-14T19:46:15.063Z,3.60
2018-12-14T19:48:50.663Z,3.53
2018-12-14T19:51:21.321Z,3.53
2018-12-14T19:53:52.524Z,3.52
2018-12-14T19:56:26.843Z,3.54
2018-12-14T19:58:58.826Z,3.59
2018-12-14T20:01:34.591Z,3.58
2018-12-14T20:04:08.984Z,3.61
2018-12-14T20:06:43.933Z,3.59
2018-12-14T20:09:19.526Z,3.54
2018-12-14T20:11:49.955Z,3.57
2018-12-14T20:14:23.246Z,2.90
2018-12-14T20:17:04.211Z,3.54
2018-12-14T20:19:36.398Z,3.56
2018-12-14T20:22:10.015Z,3.61
2018-12-14T20:24:54.269Z,3.56
2018-12-14T20:27:44.131Z,3.51
2018-12-14T20:30:15.188Z,3.52
2018-12-14T20:32:48.014Z,3.55
2018-12-14T20:35:18.442Z,3.58
2018-12-14T20:37:58.187Z,3.59
2018-12-14T20:40:33.701Z,3.63
2018-12-14T20:43:05.141Z,3.66
2018-12-14T20:45:38.962Z,3.68
2018-12-14T20:48:10.316Z,3.67
2018-12-14T20:50:40.908Z,3.66
2018-12-14T20:53:38.688Z,3.65
2018-12-14T20:56:12.227Z,3.64
2018-12-14T20:58:42.665Z,3.66
2018-12-14T21:01:15.733Z,3.67
2018-12-14T21:03:55.305Z,3.66
2018-12-14T21:06:28.945Z,3.63
2018-12-14T21:09:03.520Z,3.62
2018-12-14T21:11:36.076Z,3.63
2018-12-14T21:14:19.365Z,3.63
2018-12-14T21:17:11.926Z,3.64
2018-12-14T21:19:46.373Z,3.61
2018-12-14T21:22:30.464Z,3.62
2018-12-14T21:25:10.329Z,3.55
2018-12-14T21:27:44.892Z,3.53
2018-12-14T21:30:17.665Z,3.56
2018-12-14T21:33:05.650Z,3.57
2018-12-14T21:35:39.699Z,2.99
2018-12-14T21:38:25.325Z,2.97
2018-12-14T21:41:14.696Z,3.53
2018-12-14T21:43:52.903Z,3.51
2018-12-14T21:46:32.671Z,3.52
2018-12-14T21:49:05.502Z,3.52
2018-12-14T21:51:38.353Z,3.54
2018-12-14T21:54:07.875Z,3.56
2018-12-14T21:56:38.139Z,3.58
2018-12-14T21:59:07.626Z,3.55
2018-12-14T22:01:37.729Z,3.58
2018-12-14T22:04:08.742Z,3.59
2018-12-14T22:06:41.355Z,3.64
2018-12-14T22:09:16.025Z,3.64
2018-12-14T22:11:52.625Z,3.65
2018-12-14T22:14:27.043Z,3.64
2018-12-14T22:16:58.890Z,3.64
2018-12-14T22:19:29.115Z,3.61
2018-12-14T22:21:59.189Z,3.63
2018-12-14T22:24:35.826Z,3.58
2018-12-14T22:27:06.845Z,3.53
2018-12-14T22:29:40.393Z,2.94
2018-12-14T22:32:16.499Z,3.57
2018-12-14T22:34:47.333Z,3.60
2018-12-14T22:37:17.606Z,3.62
2018-12-14T22:39:51.020Z,3.64
2018-12-14T22:42:21.042Z,3.67
2018-12-14T22:44:51.743Z,3.66
2018-12-14T22:47:23.193Z,3.67
2018-12-14T22:49:53.319Z,3.02
2018-12-14T22:52:23.888Z,3.63
2018-12-14T22:54:56.861Z,3.58
2018-12-14T22:57:29.324Z,3.49
2018-12-14T23:00:08.911Z,3.50
2018-12-14T23:02:49.404Z,3.43
2018-12-14T23:05:25.924Z,3.43
2018-12-14T23:08:02.035Z,3.40
2018-12-14T23:10:34.210Z,3.41
2018-12-14T23:13:08.277Z,3.41
2018-12-14T23:15:41.754Z,3.44
2018-12-14T23:18:16.387Z,3.48
2018-12-14T23:20:49.141Z,2.82
2018-12-14T23:23:27.426Z,3.50
2018-12-14T23:26:00.108Z,3.48
2018-12-14T23:28:31.105Z,3.50
2018-12-14T23:31:00.854Z,3.53
2018-12-14T23:33:34.171Z,3.52
2018-12-14T23:36:04.085Z,3.18
2018-12-14T23:38:33.801Z,3.55
2018-12-14T23:41:12.477Z,3.55
2018-12-14T23:43:42.278Z,3.56
2018-12-14T23:46:12.885Z,3.56
2018-12-14T23:48:42.977Z,3.56
2018-12-14T23:51:14.642Z,3.53
2018-12-14T23:53:47.628Z,3.52
2018-12-14T23:56:17.593Z,3.54
2018-12-14T23:58:51.052Z,3.53
